createdAt,value
2017-04-01T00:00:54.734Z,0
2017-04-01T00:01:54.732Z,0
2017-04-01T00:02:54.403Z,0
2017-04-01T00:03:54.459Z,0
2017-04-01T00:04:54.685Z,0
2017-04-01T00:05:54.676Z,0
2017-04-01T00:06:54.635Z,0
2017-04-01T00:07:54.636Z,0
2017-04-01T00:08:54.624Z,0
2017-04-01T00:09:54.338Z,0
2017-04-01T00:10:54.585Z,0
2017-04-01T00:11:54.565Z,0
2017-04-01T00:12:54.546Z,0
2017-04-01T00:13:54.225Z,0
2017-04-01T00:14:54.207Z,0
2017-04-01T00:15:53.582Z,0
2017-04-01T00:16:54.215Z,0
2017-04-01T00:17:54.485Z,0
2017-04-01T00:18:54.469Z,0
2017-04-01T00:19:54.163Z,0
2017-04-01T00:20:54.124Z,0
2017-04-01T00:21:53.823Z,0
2017-04-01T00:22:54.393Z,0
2017-04-01T00:23:54.105Z,0
2017-04-01T00:24:54.081Z,0
2017-04-01T00:25:53.765Z,0
2017-04-01T00:26:54.053Z,0
2017-04-01T00:27:53.422Z,0
2017-04-01T00:28:54.061Z,0
2017-04-01T00:29:53.980Z,0
2017-04-01T00:30:53.986Z,0
2017-04-01T00:31:54.266Z,0
2017-04-01T00:32:53.934Z,0
2017-04-01T00:33:54.024Z,0
2017-04-01T00:34:54.237Z,0
2017-04-01T00:35:53.997Z,0
2017-04-01T00:36:53.565Z,0
2017-04-01T00:37:53.955Z,0
2017-04-01T00:38:54.238Z,0
2017-04-01T00:39:53.888Z,0
2017-04-01T00:40:53.494Z,0
2017-04-01T00:41:53.916Z,0
2017-04-01T00:42:54.128Z,0
2017-04-01T00:43:53.867Z,0
2017-04-01T00:44:54.147Z,0
2017-04-01T00:45:53.745Z,0
2017-04-01T00:46:53.776Z,0
2017-04-01T00:47:54.027Z,0
2017-04-01T00:48:54.001Z,0
2017-04-01T00:49:53.997Z,0
2017-04-01T00:50:53.966Z,0
2017-04-01T00:51:53.036Z,0
2017-04-01T00:52:53.978Z,0
2017-04-01T00:53:54.226Z,0
2017-04-01T00:54:53.964Z,0
2017-04-01T00:55:53.885Z,0
2017-04-01T00:56:53.575Z,0
2017-04-01T00:57:53.548Z,0
2017-04-01T00:58:53.942Z,0
2017-04-01T00:59:53.878Z,0
2017-04-01T01:00:53.534Z,0
2017-04-01T01:01:53.475Z,0
2017-04-01T01:02:53.165Z,0
2017-04-01T01:03:53.455Z,0
2017-04-01T01:04:53.431Z,0
2017-04-01T01:05:53.431Z,0
2017-04-01T01:06:53.505Z,0
2017-04-01T01:07:53.380Z,0
2017-04-01T01:08:53.685Z,0
2017-04-01T01:09:53.716Z,0
2017-04-01T01:10:53.343Z,0
2017-04-01T01:11:53.325Z,0
2017-04-01T01:12:53.638Z,0
2017-04-01T01:13:53.690Z,0
2017-04-01T01:14:53.586Z,0
2017-04-01T01:15:53.562Z,0
2017-04-01T01:16:53.586Z,0
2017-04-01T01:17:53.549Z,0
2017-04-01T01:18:53.524Z,0
2017-04-01T01:19:53.197Z,0
2017-04-01T01:20:53.495Z,0
2017-04-01T01:21:53.466Z,0
2017-04-01T01:22:53.466Z,0
2017-04-01T01:23:52.855Z,0
2017-04-01T01:24:53.436Z,0
2017-04-01T01:25:53.424Z,0
2017-04-01T01:26:53.405Z,0
2017-04-01T01:27:53.368Z,0
2017-04-01T01:28:53.424Z,0
2017-04-01T01:29:53.035Z,0
2017-04-01T01:30:53.020Z,0
2017-04-01T01:31:53.371Z,0
2017-04-01T01:32:53.304Z,0
2017-04-01T01:33:53.356Z,0
2017-04-01T01:34:52.680Z,0
2017-04-01T01:35:53.305Z,0
2017-04-01T01:36:52.930Z,0
2017-04-01T01:37:53.224Z,0
2017-04-01T01:38:53.190Z,0
2017-04-01T01:39:52.875Z,0
2017-04-01T01:40:53.165Z,0
2017-04-01T01:41:52.835Z,0
2017-04-01T01:42:52.224Z,0
2017-04-01T01:43:52.494Z,0
2017-04-01T01:44:52.784Z,0
2017-04-01T01:45:53.075Z,0
2017-04-01T01:46:53.054Z,0
2017-04-01T01:47:53.054Z,0
2017-04-01T01:48:52.464Z,0
2017-04-01T01:49:53.027Z,0
2017-04-01T01:50:52.694Z,0
2017-04-01T01:51:52.675Z,0
2017-04-01T01:52:52.971Z,0
2017-04-01T01:53:53.016Z,0
2017-04-01T01:54:52.942Z,0
2017-04-01T01:55:52.316Z,0
2017-04-01T01:56:52.925Z,0
2017-04-01T01:57:52.596Z,0
2017-04-01T01:58:52.864Z,0
2017-04-01T01:59:52.236Z,0
2017-04-01T02:00:52.835Z,0
2017-04-01T02:01:52.516Z,0
2017-04-01T02:02:52.815Z,0
2017-04-01T02:03:52.804Z,0
2017-04-01T02:04:52.805Z,0
2017-04-01T02:05:52.139Z,0
2017-04-01T02:06:52.435Z,0
2017-04-01T02:07:52.715Z,0
2017-04-01T02:08:52.443Z,0
2017-04-01T02:09:52.386Z,0
2017-04-01T02:10:52.358Z,0
2017-04-01T02:11:52.344Z,0
2017-04-01T02:12:52.634Z,0
2017-04-01T02:13:52.332Z,0
2017-04-01T02:14:52.614Z,0
2017-04-01T02:15:52.614Z,0
2017-04-01T02:16:51.966Z,0
2017-04-01T02:17:52.271Z,0
2017-04-01T02:18:52.544Z,0
2017-04-01T02:19:52.245Z,0
2017-04-01T02:20:52.218Z,0
2017-04-01T02:21:51.887Z,0
2017-04-01T02:22:52.501Z,0
2017-04-01T02:23:52.454Z,0
2017-04-01T02:24:52.155Z,0
2017-04-01T02:25:52.425Z,0
2017-04-01T02:26:52.152Z,0
2017-04-01T02:27:52.395Z,0
2017-04-01T02:28:51.835Z,0
2017-04-01T02:29:51.885Z,0
2017-04-01T02:30:52.365Z,0
2017-04-01T02:31:52.355Z,0
2017-04-01T02:32:51.746Z,0
2017-04-01T02:33:51.993Z,0
2017-04-01T02:34:52.011Z,0
2017-04-01T02:35:52.258Z,0
2017-04-01T02:36:52.242Z,0
2017-04-01T02:37:52.235Z,0
2017-04-01T02:38:52.211Z,0
2017-04-01T02:39:51.960Z,0
2017-04-01T02:40:51.894Z,0
2017-04-01T02:41:51.865Z,0
2017-04-01T02:42:51.876Z,0
2017-04-01T02:43:51.827Z,0
2017-04-01T02:44:51.503Z,0
2017-04-01T02:45:51.835Z,0
2017-04-01T02:46:51.785Z,0
2017-04-01T02:47:52.085Z,0
2017-04-01T02:48:52.054Z,0
2017-04-01T02:49:51.414Z,0
2017-04-01T02:50:52.045Z,0
2017-04-01T02:51:51.763Z,0
2017-04-01T02:52:51.984Z,0
2017-04-01T02:53:51.364Z,0
2017-04-01T02:54:51.955Z,0
2017-04-01T02:55:51.325Z,0
2017-04-01T02:56:51.934Z,0
2017-04-01T02:57:51.284Z,0
2017-04-01T02:58:51.270Z,0
2017-04-01T02:59:51.653Z,0
2017-04-01T03:00:51.534Z,0
2017-04-01T03:01:51.844Z,0
2017-04-01T03:02:51.814Z,0
2017-04-01T03:03:51.201Z,0
2017-04-01T03:04:51.785Z,0
2017-04-01T03:05:51.465Z,0
2017-04-01T03:06:51.765Z,0
2017-04-01T03:07:51.123Z,0
2017-04-01T03:08:51.734Z,0
2017-04-01T03:09:51.715Z,0
2017-04-01T03:10:51.374Z,0
2017-04-01T03:11:51.365Z,0
2017-04-01T03:12:51.335Z,0
2017-04-01T03:13:51.427Z,0
2017-04-01T03:14:51.658Z,0
2017-04-01T03:15:51.405Z,0
2017-04-01T03:16:51.594Z,0
2017-04-01T03:17:51.360Z,0
2017-04-01T03:18:50.946Z,0
2017-04-01T03:19:51.224Z,0
2017-04-01T03:20:51.226Z,0
2017-04-01T03:21:51.200Z,0
2017-04-01T03:22:51.496Z,0
2017-04-01T03:23:51.513Z,0
2017-04-01T03:24:50.844Z,0
2017-04-01T03:25:50.816Z,0
2017-04-01T03:26:51.438Z,0
2017-04-01T03:27:51.403Z,0
2017-04-01T03:28:51.086Z,0
2017-04-01T03:29:51.074Z,0
2017-04-01T03:30:51.078Z,0
2017-04-01T03:31:51.044Z,0
2017-04-01T03:32:51.414Z,0
2017-04-01T03:33:51.067Z,0
2017-04-01T03:34:50.669Z,0
2017-04-01T03:35:50.966Z,0
2017-04-01T03:36:50.947Z,0
2017-04-01T03:37:50.945Z,0
2017-04-01T03:38:50.928Z,0
2017-04-01T03:39:51.285Z,0
2017-04-01T03:40:50.884Z,0
2017-04-01T03:41:50.877Z,0
2017-04-01T03:42:51.172Z,0
2017-04-01T03:43:50.942Z,0
2017-04-01T03:44:50.804Z,0
2017-04-01T03:45:51.114Z,0
2017-04-01T03:46:50.785Z,0
2017-04-01T03:47:50.794Z,0
2017-04-01T03:48:50.751Z,0
2017-04-01T03:49:51.084Z,0
2017-04-01T03:50:51.023Z,0
2017-04-01T03:51:50.755Z,0
2017-04-01T03:52:50.679Z,0
2017-04-01T03:53:51.126Z,0
2017-04-01T03:54:50.755Z,0
2017-04-01T03:55:51.035Z,0
2017-04-01T03:56:50.721Z,0
2017-04-01T03:57:50.595Z,0
2017-04-01T03:58:50.368Z,0
2017-04-01T03:59:51.016Z,0
2017-04-01T04:00:50.567Z,0
2017-04-01T04:01:50.875Z,0
2017-04-01T04:02:50.596Z,0
2017-04-01T04:03:50.585Z,0
2017-04-01T04:04:50.465Z,0
2017-04-01T04:05:50.460Z,0
2017-04-01T04:06:50.446Z,0
2017-04-01T04:07:50.485Z,0
2017-04-01T04:08:50.772Z,0
2017-04-01T04:09:50.430Z,0
2017-04-01T04:10:50.689Z,0
2017-04-01T04:11:50.709Z,0
2017-04-01T04:12:50.654Z,0
2017-04-01T04:13:50.437Z,0
2017-04-01T04:14:50.385Z,0
2017-04-01T04:15:50.647Z,0
2017-04-01T04:16:50.632Z,0
2017-04-01T04:17:50.255Z,0
2017-04-01T04:18:50.235Z,0
2017-04-01T04:19:50.569Z,0
2017-04-01T04:20:50.501Z,0
2017-04-01T04:21:49.909Z,0
2017-04-01T04:22:50.473Z,0
2017-04-01T04:23:50.153Z,0
2017-04-01T04:24:50.145Z,0
2017-04-01T04:25:50.427Z,0
2017-04-01T04:26:50.410Z,0
2017-04-01T04:27:50.380Z,0
2017-04-01T04:28:50.059Z,0
2017-04-01T04:29:50.363Z,0
2017-04-01T04:30:49.415Z,0
2017-04-01T04:31:49.388Z,0
2017-04-01T04:32:49.997Z,0
2017-04-01T04:33:49.676Z,0
2017-04-01T04:34:50.016Z,0
2017-04-01T04:35:49.945Z,0
2017-04-01T04:36:50.221Z,0
2017-04-01T04:37:49.902Z,0
2017-04-01T04:38:50.265Z,4
2017-04-01T04:39:49.870Z,4
2017-04-01T04:40:49.896Z,0
2017-04-01T04:41:50.152Z,4
2017-04-01T04:42:50.144Z,4
2017-04-01T04:43:50.167Z,4
2017-04-01T04:44:49.491Z,8
2017-04-01T04:45:49.467Z,8
2017-04-01T04:46:50.129Z,8
2017-04-01T04:47:49.435Z,8
2017-04-01T04:48:50.027Z,12
2017-04-01T04:49:49.713Z,16
2017-04-01T04:50:49.990Z,16
2017-04-01T04:51:49.051Z,16
2017-04-01T04:52:50.016Z,20
2017-04-01T04:53:49.957Z,24
2017-04-01T04:54:49.317Z,28
2017-04-01T04:55:49.880Z,32
2017-04-01T04:56:49.267Z,32
2017-04-01T04:57:49.855Z,36
2017-04-01T04:58:49.650Z,44
2017-04-01T04:59:49.226Z,44
2017-04-01T05:00:49.514Z,52
2017-04-01T05:01:49.795Z,56
2017-04-01T05:02:49.465Z,64
2017-04-01T05:03:49.438Z,72
2017-04-01T05:04:49.745Z,80
2017-04-01T05:05:49.136Z,84
2017-04-01T05:06:49.705Z,92
2017-04-01T05:07:49.703Z,100
2017-04-01T05:08:49.675Z,108
2017-04-01T05:09:49.650Z,120
2017-04-01T05:10:49.645Z,128
2017-04-01T05:11:49.624Z,140
2017-04-01T05:12:49.614Z,152
2017-04-01T05:13:49.296Z,168
2017-04-01T05:14:49.605Z,184
2017-04-01T05:15:49.556Z,200
2017-04-01T05:16:49.565Z,216
2017-04-01T05:17:48.604Z,236
2017-04-01T05:18:49.211Z,260
2017-04-01T05:19:49.484Z,284
2017-04-01T05:20:49.165Z,304
2017-04-01T05:21:49.147Z,336
2017-04-01T05:22:49.435Z,360
2017-04-01T05:23:49.148Z,388
2017-04-01T05:24:49.085Z,416
2017-04-01T05:25:49.375Z,440
2017-04-01T05:26:49.373Z,472
2017-04-01T05:27:49.381Z,508
2017-04-01T05:28:49.337Z,544
2017-04-01T05:29:49.016Z,584
2017-04-01T05:30:49.283Z,628
2017-04-01T05:31:49.266Z,672
2017-04-01T05:32:49.245Z,716
2017-04-01T05:33:48.315Z,748
2017-04-01T05:34:49.226Z,780
2017-04-01T05:35:49.198Z,808
2017-04-01T05:36:49.185Z,832
2017-04-01T05:37:49.156Z,864
2017-04-01T05:38:49.147Z,896
2017-04-01T05:39:48.836Z,928
2017-04-01T05:40:49.107Z,972
2017-04-01T05:41:49.085Z,1016
2017-04-01T05:42:49.066Z,1056
2017-04-01T05:43:49.055Z,1092
2017-04-01T05:44:48.731Z,1124
2017-04-01T05:45:48.725Z,1168
2017-04-01T05:46:49.009Z,1200
2017-04-01T05:47:48.980Z,1224
2017-04-01T05:48:48.612Z,1256
2017-04-01T05:49:48.647Z,1300
2017-04-01T05:50:48.756Z,1360
2017-04-01T05:51:48.617Z,1420
2017-04-01T05:52:48.896Z,1480
2017-04-01T05:53:48.568Z,1536
2017-04-01T05:54:48.577Z,1604
2017-04-01T05:55:48.845Z,1688
2017-04-01T05:56:48.846Z,1792
2017-04-01T05:57:48.316Z,1928
2017-04-01T05:58:48.519Z,2096
2017-04-01T05:59:48.485Z,2280
2017-04-01T06:00:48.445Z,2420
2017-04-01T06:01:48.467Z,2560
2017-04-01T06:02:48.755Z,2624
2017-04-01T06:03:48.712Z,2892
2017-04-01T06:04:48.745Z,3068
2017-04-01T06:05:48.682Z,3144
2017-04-01T06:06:48.666Z,3256
2017-04-01T06:07:48.663Z,3336
2017-04-01T06:08:48.635Z,3340
2017-04-01T06:09:48.315Z,3372
2017-04-01T06:10:48.298Z,3456
2017-04-01T06:11:48.390Z,3372
2017-04-01T06:12:48.261Z,3280
2017-04-01T06:13:48.238Z,3036
2017-04-01T06:14:48.218Z,2912
2017-04-01T06:15:48.207Z,2860
2017-04-01T06:16:47.935Z,2876
2017-04-01T06:17:47.885Z,2972
2017-04-01T06:18:48.457Z,3048
2017-04-01T06:19:48.437Z,3084
2017-04-01T06:20:48.415Z,3136
2017-04-01T06:21:48.107Z,3200
2017-04-01T06:22:48.066Z,3288
2017-04-01T06:23:47.845Z,3368
2017-04-01T06:24:48.331Z,3456
2017-04-01T06:25:47.410Z,3576
2017-04-01T06:26:48.005Z,3672
2017-04-01T06:27:47.759Z,3700
2017-04-01T06:28:48.295Z,3856
2017-04-01T06:29:48.290Z,4020
2017-04-01T06:30:47.930Z,4236
2017-04-01T06:31:47.626Z,4492
2017-04-01T06:32:47.607Z,4884
2017-04-01T06:33:48.187Z,4848
2017-04-01T06:34:48.189Z,4632
2017-04-01T06:35:47.956Z,4548
2017-04-01T06:36:47.844Z,4524
2017-04-01T06:37:48.125Z,4464
2017-04-01T06:38:47.863Z,4384
2017-04-01T06:39:47.495Z,4456
2017-04-01T06:40:48.083Z,4500
2017-04-01T06:41:47.456Z,4676
2017-04-01T06:42:47.455Z,4884
2017-04-01T06:43:47.716Z,4988
2017-04-01T06:44:48.015Z,4980
2017-04-01T06:45:47.686Z,5044
2017-04-01T06:46:47.362Z,5084
2017-04-01T06:47:47.357Z,5032
2017-04-01T06:48:47.346Z,4992
2017-04-01T06:49:47.936Z,4892
2017-04-01T06:50:47.605Z,4836
2017-04-01T06:51:47.586Z,4804
2017-04-01T06:52:46.956Z,4780
2017-04-01T06:53:47.865Z,4852
2017-04-01T06:54:47.834Z,4920
2017-04-01T06:55:47.808Z,5020
2017-04-01T06:56:47.195Z,5180
2017-04-01T06:57:47.786Z,5384
2017-04-01T06:58:47.157Z,5612
2017-04-01T06:59:47.151Z,5884
2017-04-01T07:00:47.126Z,6216
2017-04-01T07:01:47.725Z,6412
2017-04-01T07:02:47.408Z,6668
2017-04-01T07:03:47.381Z,6908
2017-04-01T07:04:47.435Z,7460
2017-04-01T07:05:47.035Z,8256
2017-04-01T07:06:47.636Z,10124
2017-04-01T07:07:47.319Z,9464
2017-04-01T07:08:47.611Z,9296
2017-04-01T07:09:46.970Z,14988
2017-04-01T07:10:46.996Z,9124
2017-04-01T07:11:47.256Z,8960
2017-04-01T07:12:47.619Z,8852
2017-04-01T07:13:47.225Z,9044
2017-04-01T07:14:47.217Z,8772
2017-04-01T07:15:46.879Z,9088
2017-04-01T07:16:47.512Z,8748
2017-04-01T07:17:47.471Z,8700
2017-04-01T07:18:47.263Z,8956
2017-04-01T07:19:47.440Z,9084
2017-04-01T07:20:47.424Z,9176
2017-04-01T07:21:46.806Z,9508
2017-04-01T07:22:47.519Z,10000
2017-04-01T07:23:47.365Z,10344
2017-04-01T07:24:47.371Z,10356
2017-04-01T07:25:47.026Z,10220
2017-04-01T07:26:47.322Z,10176
2017-04-01T07:27:46.685Z,9860
2017-04-01T07:28:46.754Z,9524
2017-04-01T07:29:47.285Z,9544
2017-04-01T07:30:46.975Z,9656
2017-04-01T07:31:46.946Z,10300
2017-04-01T07:32:46.661Z,10364
2017-04-01T07:33:46.905Z,10168
2017-04-01T07:34:47.266Z,10128
2017-04-01T07:35:47.236Z,10096
2017-04-01T07:36:46.930Z,10436
2017-04-01T07:37:47.202Z,10484
2017-04-01T07:38:47.186Z,9864
2017-04-01T07:39:46.896Z,9348
2017-04-01T07:40:47.186Z,9732
2017-04-01T07:41:46.876Z,9376
2017-04-01T07:42:46.900Z,9588
2017-04-01T07:43:47.076Z,10096
2017-04-01T07:44:46.441Z,10464
2017-04-01T07:45:47.076Z,11028
2017-04-01T07:46:47.042Z,11372
2017-04-01T07:47:46.725Z,11404
2017-04-01T07:48:46.716Z,11668
2017-04-01T07:49:47.045Z,11884
2017-04-01T07:50:46.984Z,12436
2017-04-01T07:51:46.676Z,13860
2017-04-01T07:52:46.356Z,14660
2017-04-01T07:53:46.630Z,14468
2017-04-01T07:54:46.655Z,15056
2017-04-01T07:55:46.925Z,14888
2017-04-01T07:56:46.606Z,15152
2017-04-01T07:57:46.916Z,15840
2017-04-01T07:58:46.568Z,16960
2017-04-01T07:59:46.866Z,21728
2017-04-01T08:00:46.866Z,35456
2017-04-01T08:01:46.569Z,35936
2017-04-01T08:02:46.823Z,42560
2017-04-01T08:03:46.824Z,38688
2017-04-01T08:04:46.506Z,36864
2017-04-01T08:05:46.797Z,44544
2017-04-01T08:06:46.826Z,49056
2017-04-01T08:07:46.796Z,27840
2017-04-01T08:08:46.457Z,40480
2017-04-01T08:09:46.468Z,46912
2017-04-01T08:10:46.756Z,53728
2017-04-01T08:11:46.447Z,51712
2017-04-01T08:12:46.727Z,54048
2017-04-01T08:13:46.436Z,53600
2017-04-01T08:14:46.116Z,50144
2017-04-01T08:15:45.798Z,50688
2017-04-01T08:16:46.439Z,47552
2017-04-01T08:17:46.704Z,44800
2017-04-01T08:18:46.375Z,46048
2017-04-01T08:19:46.406Z,38752
2017-04-01T08:20:46.367Z,14564
2017-04-01T08:21:46.048Z,10740
2017-04-01T08:22:46.037Z,12348
2017-04-01T08:23:46.647Z,20768
2017-04-01T08:24:46.087Z,28416
2017-04-01T08:25:46.419Z,33472
2017-04-01T08:26:46.617Z,43232
2017-04-01T08:27:46.616Z,16352
2017-04-01T08:28:46.717Z,16544
2017-04-01T08:29:46.597Z,14680
2017-04-01T08:30:45.950Z,37536
2017-04-01T08:31:46.288Z,44576
2017-04-01T08:32:46.567Z,18144
2017-04-01T08:33:46.266Z,31840
2017-04-01T08:34:46.226Z,19136
2017-04-01T08:35:46.613Z,23776
2017-04-01T08:36:46.324Z,22752
2017-04-01T08:37:46.216Z,20288
2017-04-01T08:38:46.216Z,48352
2017-04-01T08:39:46.518Z,19008
2017-04-01T08:40:46.189Z,14216
2017-04-01T08:41:46.167Z,27680
2017-04-01T08:42:46.586Z,34144
2017-04-01T08:43:46.519Z,50304
2017-04-01T08:44:45.849Z,58816
2017-04-01T08:45:46.437Z,16608
2017-04-01T08:46:46.193Z,50112
2017-04-01T08:47:46.425Z,24672
2017-04-01T08:48:45.821Z,51360
2017-04-01T08:49:46.417Z,44640
2017-04-01T08:50:46.426Z,22784
2017-04-01T08:51:46.118Z,50240
2017-04-01T08:52:46.086Z,51424
2017-04-01T08:53:46.176Z,38016
2017-04-01T08:54:46.382Z,27008
2017-04-01T08:55:46.367Z,28704
2017-04-01T08:56:46.346Z,55232
2017-04-01T08:57:46.155Z,14536
2017-04-01T08:58:46.037Z,12732
2017-04-01T08:59:46.349Z,15904
2017-04-01T09:00:46.313Z,12308
2017-04-01T09:01:46.053Z,11580
2017-04-01T09:02:46.010Z,10864
2017-04-01T09:03:46.318Z,11040
2017-04-01T09:04:45.680Z,10744
2017-04-01T09:05:46.288Z,8600
2017-04-01T09:06:46.268Z,7324
2017-04-01T09:07:46.142Z,7036
2017-04-01T09:08:45.965Z,7000
2017-04-01T09:09:46.362Z,6572
2017-04-01T09:10:46.249Z,6436
2017-04-01T09:11:45.977Z,6540
2017-04-01T09:12:46.213Z,6588
2017-04-01T09:13:46.206Z,6216
2017-04-01T09:14:45.987Z,5804
2017-04-01T09:15:45.876Z,5412
2017-04-01T09:16:46.179Z,5532
2017-04-01T09:17:46.175Z,6176
2017-04-01T09:18:46.256Z,6912
2017-04-01T09:19:46.166Z,7552
2017-04-01T09:20:46.206Z,7932
2017-04-01T09:21:45.807Z,7440
2017-04-01T09:22:45.827Z,8948
2017-04-01T09:23:46.098Z,12720
2017-04-01T09:24:46.110Z,12040
2017-04-01T09:25:46.179Z,12840
2017-04-01T09:26:46.147Z,13432
2017-04-01T09:27:45.429Z,12068
2017-04-01T09:28:46.031Z,17376
2017-04-01T09:29:46.119Z,14144
2017-04-01T09:30:45.702Z,15712
2017-04-01T09:31:45.375Z,13532
2017-04-01T09:32:45.999Z,19168
2017-04-01T09:33:46.022Z,15344
2017-04-01T09:34:45.952Z,21696
2017-04-01T09:35:45.637Z,28064
2017-04-01T09:36:46.000Z,30272
2017-04-01T09:37:45.304Z,22272
2017-04-01T09:38:45.297Z,22944
2017-04-01T09:39:45.911Z,19168
2017-04-01T09:40:45.897Z,12464
2017-04-01T09:41:45.581Z,10696
2017-04-01T09:42:45.876Z,9912
2017-04-01T09:43:45.546Z,9240
2017-04-01T09:44:45.247Z,9144
2017-04-01T09:45:45.538Z,9264
2017-04-01T09:46:45.207Z,9664
2017-04-01T09:47:45.215Z,11232
2017-04-01T09:48:45.499Z,11268
2017-04-01T09:49:45.178Z,18144
2017-04-01T09:50:45.495Z,14892
2017-04-01T09:51:45.759Z,12248
2017-04-01T09:52:45.439Z,8804
2017-04-01T09:53:45.741Z,7476
2017-04-01T09:54:45.766Z,6512
2017-04-01T09:55:45.437Z,7876
2017-04-01T09:56:45.418Z,10020
2017-04-01T09:57:45.709Z,13776
2017-04-01T09:58:45.695Z,35360
2017-04-01T09:59:45.384Z,32768
2017-04-01T10:00:45.692Z,42592
2017-04-01T10:01:45.359Z,38080
2017-04-01T10:02:45.352Z,22432
2017-04-01T10:03:45.335Z,14664
2017-04-01T10:04:45.630Z,19040
2017-04-01T10:05:45.314Z,7464
2017-04-01T10:06:45.594Z,6528
2017-04-01T10:07:45.051Z,6176
2017-04-01T10:08:45.595Z,6532
2017-04-01T10:09:45.266Z,7964
2017-04-01T10:10:45.568Z,20832
2017-04-01T10:11:45.545Z,31232
2017-04-01T10:12:45.547Z,35936
2017-04-01T10:13:45.531Z,37312
2017-04-01T10:14:45.548Z,38816
2017-04-01T10:15:45.524Z,37088
2017-04-01T10:16:45.198Z,36288
2017-04-01T10:17:45.682Z,31392
2017-04-01T10:18:45.191Z,38976
2017-04-01T10:19:45.486Z,30368
2017-04-01T10:20:45.179Z,30912
2017-04-01T10:21:44.943Z,30368
2017-04-01T10:22:44.521Z,30944
2017-04-01T10:23:45.238Z,25280
2017-04-01T10:24:45.454Z,23648
2017-04-01T10:25:45.132Z,19840
2017-04-01T10:26:44.820Z,16256
2017-04-01T10:27:45.103Z,20640
2017-04-01T10:28:45.091Z,15796
2017-04-01T10:29:45.437Z,21152
2017-04-01T10:30:45.362Z,21792
2017-04-01T10:31:45.376Z,21280
2017-04-01T10:32:45.369Z,23360
2017-04-01T10:33:44.747Z,21216
2017-04-01T10:34:45.036Z,18784
2017-04-01T10:35:45.317Z,23392
2017-04-01T10:36:45.321Z,24960
2017-04-01T10:37:45.298Z,20416
2017-04-01T10:38:44.997Z,23904
2017-04-01T10:39:45.288Z,25312
2017-04-01T10:40:44.981Z,22240
2017-04-01T10:41:45.269Z,18400
2017-04-01T10:42:44.966Z,16896
2017-04-01T10:43:45.250Z,12176
2017-04-01T10:44:45.235Z,12940
2017-04-01T10:45:44.615Z,13612
2017-04-01T10:46:44.310Z,10124
2017-04-01T10:47:44.596Z,9940
2017-04-01T10:48:44.886Z,10652
2017-04-01T10:49:45.194Z,10480
2017-04-01T10:50:44.878Z,9828
2017-04-01T10:51:45.149Z,9780
2017-04-01T10:52:45.158Z,10452
2017-04-01T10:53:45.137Z,10432
2017-04-01T10:54:44.810Z,10192
2017-04-01T10:55:45.118Z,10512
2017-04-01T10:56:44.506Z,11108
2017-04-01T10:57:44.539Z,11944
2017-04-01T10:58:45.097Z,12460
2017-04-01T10:59:44.487Z,13200
2017-04-01T11:00:45.080Z,11772
2017-04-01T11:01:44.442Z,10468
2017-04-01T11:02:44.800Z,8792
2017-04-01T11:03:44.856Z,7900
2017-04-01T11:04:44.808Z,7552
2017-04-01T11:05:44.527Z,8044
2017-04-01T11:06:44.820Z,10516
2017-04-01T11:07:44.842Z,11896
2017-04-01T11:08:45.042Z,10072
2017-04-01T11:09:44.667Z,8192
2017-04-01T11:10:45.056Z,6976
2017-04-01T11:11:44.656Z,6448
2017-04-01T11:12:44.753Z,6480
2017-04-01T11:13:44.700Z,6872
2017-04-01T11:14:44.649Z,8372
2017-04-01T11:15:44.966Z,9124
2017-04-01T11:16:44.911Z,8944
2017-04-01T11:17:44.300Z,7856
2017-04-01T11:18:44.585Z,7084
2017-04-01T11:19:44.934Z,6168
2017-04-01T11:20:44.609Z,5712
2017-04-01T11:21:44.905Z,5588
2017-04-01T11:22:44.885Z,5956
2017-04-01T11:23:44.867Z,6704
2017-04-01T11:24:44.839Z,7704
2017-04-01T11:25:44.814Z,8544
2017-04-01T11:26:44.483Z,8896
2017-04-01T11:27:44.782Z,9084
2017-04-01T11:28:44.469Z,8700
2017-04-01T11:29:44.770Z,8196
2017-04-01T11:30:44.138Z,7716
2017-04-01T11:31:44.736Z,7556
2017-04-01T11:32:44.427Z,7496
2017-04-01T11:33:44.722Z,7376
2017-04-01T11:34:44.705Z,7352
2017-04-01T11:35:44.700Z,7496
2017-04-01T11:36:44.385Z,7812
2017-04-01T11:37:44.368Z,8348
2017-04-01T11:38:44.709Z,9100
2017-04-01T11:39:44.645Z,9628
2017-04-01T11:40:44.631Z,10104
2017-04-01T11:41:44.626Z,10940
2017-04-01T11:42:44.652Z,11600
2017-04-01T11:43:44.595Z,12780
2017-04-01T11:44:44.599Z,13448
2017-04-01T11:45:44.583Z,14292
2017-04-01T11:46:44.577Z,14880
2017-04-01T11:47:44.367Z,13516
2017-04-01T11:48:44.355Z,13540
2017-04-01T11:49:44.553Z,13544
2017-04-01T11:50:44.525Z,15648
2017-04-01T11:51:44.515Z,15208
2017-04-01T11:52:44.214Z,13188
2017-04-01T11:53:44.195Z,12956
2017-04-01T11:54:44.275Z,13652
2017-04-01T11:55:44.223Z,11824
2017-04-01T11:56:44.192Z,10656
2017-04-01T11:57:44.238Z,9924
2017-04-01T11:58:44.458Z,9344
2017-04-01T11:59:44.435Z,8948
2017-04-01T12:00:44.195Z,8536
2017-04-01T12:01:44.523Z,7900
2017-04-01T12:02:44.540Z,7184
2017-04-01T12:03:43.825Z,6564
2017-04-01T12:04:44.473Z,6260
2017-04-01T12:05:44.076Z,6660
2017-04-01T12:06:44.399Z,7728
2017-04-01T12:07:44.438Z,6924
2017-04-01T12:08:44.065Z,6900
2017-04-01T12:09:44.022Z,6872
2017-04-01T12:10:43.736Z,6816
2017-04-01T12:11:44.361Z,6536
2017-04-01T12:12:44.296Z,6404
2017-04-01T12:13:44.364Z,6528
2017-04-01T12:14:44.395Z,6048
2017-04-01T12:15:43.666Z,5932
2017-04-01T12:16:43.965Z,5868
2017-04-01T12:17:44.249Z,5720
2017-04-01T12:18:44.235Z,5828
2017-04-01T12:19:44.285Z,5972
2017-04-01T12:20:44.215Z,6068
2017-04-01T12:21:43.898Z,6060
2017-04-01T12:22:43.891Z,5936
2017-04-01T12:23:43.569Z,5824
2017-04-01T12:24:43.541Z,5852
2017-04-01T12:25:44.163Z,5888
2017-04-01T12:26:43.845Z,5948
2017-04-01T12:27:43.824Z,5644
2017-04-01T12:28:44.209Z,5164
2017-04-01T12:29:43.860Z,5252
2017-04-01T12:30:44.107Z,5076
2017-04-01T12:31:44.105Z,4796
2017-04-01T12:32:44.080Z,4616
2017-04-01T12:33:44.052Z,4476
2017-04-01T12:34:43.780Z,4416
2017-04-01T12:35:44.106Z,4436
2017-04-01T12:36:44.056Z,4552
2017-04-01T12:37:44.064Z,4816
2017-04-01T12:38:43.430Z,5072
2017-04-01T12:39:43.694Z,5224
2017-04-01T12:40:43.988Z,5440
2017-04-01T12:41:43.981Z,5836
2017-04-01T12:42:43.956Z,6160
2017-04-01T12:43:43.640Z,6264
2017-04-01T12:44:43.944Z,6784
2017-04-01T12:45:43.937Z,6892
2017-04-01T12:46:43.915Z,7136
2017-04-01T12:47:43.915Z,7648
2017-04-01T12:48:43.897Z,7916
2017-04-01T12:49:43.277Z,8468
2017-04-01T12:50:43.625Z,8324
2017-04-01T12:51:43.856Z,8860
2017-04-01T12:52:43.545Z,8912
2017-04-01T12:53:43.857Z,8804
2017-04-01T12:54:43.515Z,8788
2017-04-01T12:55:43.816Z,9332
2017-04-01T12:56:43.795Z,9956
2017-04-01T12:57:43.167Z,8964
2017-04-01T12:58:43.746Z,11288
2017-04-01T12:59:43.136Z,9988
2017-04-01T13:00:43.743Z,11824
2017-04-01T13:01:43.736Z,11792
2017-04-01T13:02:42.793Z,11964
2017-04-01T13:03:43.705Z,11636
2017-04-01T13:04:43.403Z,8500
2017-04-01T13:05:43.712Z,8200
2017-04-01T13:06:43.795Z,9376
2017-04-01T13:07:43.045Z,11096
2017-04-01T13:08:43.685Z,11144
2017-04-01T13:09:43.666Z,10548
2017-04-01T13:10:43.726Z,9560
2017-04-01T13:11:43.322Z,8100
2017-04-01T13:12:43.633Z,7416
2017-04-01T13:13:42.992Z,7984
2017-04-01T13:14:43.604Z,8832
2017-04-01T13:15:43.587Z,7736
2017-04-01T13:16:43.365Z,7820
2017-04-01T13:17:43.233Z,8356
2017-04-01T13:18:43.595Z,8268
2017-04-01T13:19:43.516Z,8324
2017-04-01T13:20:43.604Z,8020
2017-04-01T13:21:43.526Z,7880
2017-04-01T13:22:43.517Z,8296
2017-04-01T13:23:43.171Z,8232
2017-04-01T13:24:43.214Z,7896
2017-04-01T13:25:43.162Z,7588
2017-04-01T13:26:43.245Z,7352
2017-04-01T13:27:43.457Z,7568
2017-04-01T13:28:43.124Z,7908
2017-04-01T13:29:43.126Z,8268
2017-04-01T13:30:43.110Z,8644
2017-04-01T13:31:43.494Z,9472
2017-04-01T13:32:42.758Z,9460
2017-04-01T13:33:43.401Z,10052
2017-04-01T13:34:43.034Z,9796
2017-04-01T13:35:43.381Z,9732
2017-04-01T13:36:43.378Z,10160
2017-04-01T13:37:43.010Z,10600
2017-04-01T13:38:43.315Z,10284
2017-04-01T13:39:43.048Z,9980
2017-04-01T13:40:42.998Z,9824
2017-04-01T13:41:42.963Z,9684
2017-04-01T13:42:42.975Z,9368